Time;durP1;ratioP1;P1;durP2;ratioP2;P2;SDS_P1;SDS_P2;PMS_P1;PMS_P2;Temp;Humidity;BMP_temperature;BMP_pressure;BME280_temperature;BME280_humidity;BME280_pressure;Samples;Min_cycle;Max_cycle;Signal;HPM_P1;HPM_P2
2022/12/30 00:05:48;;;;;;;8.65;1.77;;;5.50;99.90;;;;;;6279697;22;20030;-92
2022/12/30 00:11:00;;;;;;;14.57;2.38;;;5.50;99.90;;;;;;6278861;22;20038;-92
2022/12/30 00:34:12;;;;;;;10.82;2.15;;;5.30;99.90;;;;;;6249218;23;20066;-92
2022/12/30 00:36:39;;;;;;;11.27;2.17;;;5.30;99.90;;;;;;6197031;23;20095;-93
2022/12/30 00:46:28;;;;;;;9.38;2.03;;;5.30;99.90;;;;;;6249314;23;20022;-91
2022/12/30 01:02:07;;;;;;;11.33;1.97;;;4.80;99.90;;;;;;6249293;23;20031;-91
2022/12/30 01:08:07;;;;;;;10.68;2.00;;;5.10;99.90;;;;;;6222211;23;20016;-92
2022/12/30 01:10:34;;;;;;;11.07;2.30;;;5.10;99.90;;;;;;6197977;23;20443;-91
2022/12/30 01:13:00;;;;;;;9.32;1.83;;;5.00;99.90;;;;;;6198070;23;20757;-91
2022/12/30 01:18:50;;;;;;;10.98;2.10;;;5.10;99.90;;;;;;6223804;23;20023;-93
2022/12/30 01:21:17;;;;;;;14.00;2.42;;;5.00;99.90;;;;;;6172844;23;20078;-91
2022/12/30 01:23:43;;;;;;;7.75;1.85;;;;;;;;;;6198514;23;20016;-92
2022/12/30 01:29:43;;;;;;;9.68;2.10;;;5.00;99.90;;;;;;6254174;22;20019;-91
2022/12/30 01:36:22;;;;;;;15.70;2.53;;;5.00;99.90;;;;;;6257410;22;20019;-92
2022/12/30 01:39:26;;;;;;;8.35;2.00;;;5.00;99.90;;;;;;6253715;22;20090;-90
2022/12/30 01:41:54;;;;;;;13.73;1.90;;;5.00;99.90;;;;;;6252746;22;20011;-91
2022/12/30 01:45:00;;;;;;;14.88;2.30;;;4.90;99.90;;;;;;6252742;22;20042;-92
2022/12/30 01:48:03;;;;;;;9.90;1.90;;;5.00;99.90;;;;;;6252810;22;20034;-92
2022/12/30 01:50:46;;;;;;;9.15;2.17;;;4.20;99.90;;;;;;6253286;22;20015;-92
2022/12/30 01:53:49;;;;;;;13.27;2.15;;;4.90;99.90;;;;;;6227588;22;20054;-92
2022/12/30 01:56:53;;;;;;;11.98;2.25;;;4.90;99.90;;;;;;6252687;22;20020;-91
2022/12/30 02:02:42;;;;;;;9.32;1.50;;;5.00;99.90;;;;;;6279017;22;20073;-91
2022/12/30 02:05:11;;;;;;;15.70;2.40;;;4.90;99.90;;;;;;6230054;22;20023;-91
2022/12/30 02:08:06;;;;;;;7.20;1.60;;;5.00;99.90;;;;;;6252860;22;20023;-91
2022/12/30 02:10:52;;;;;;;11.63;1.98;;;5.00;99.90;;;;;;6251898;22;20342;-92
2022/12/30 02:13:37;;;;;;;9.45;2.17;;;5.00;99.90;;;;;;6251428;22;20026;-90
2022/12/30 02:16:18;;;;;;;12.20;2.35;;;4.90;99.90;;;;;;6250951;22;20429;-91
2022/12/30 02:19:08;;;;;;;11.00;1.88;;;4.90;99.90;;;;;;6277796;22;20023;-91
2022/12/30 02:21:59;;;;;;;12.02;2.10;;;4.80;99.90;;;;;;6259384;22;20049;-91
2022/12/30 02:24:47;;;;;;;11.70;2.75;;;4.90;99.90;;;;;;6235909;22;20289;-91
2022/12/30 02:27:14;;;;;;;14.93;2.63;;;4.90;99.90;;;;;;6261011;22;20050;-91
2022/12/30 02:30:07;;;;;;;13.18;2.40;;;4.80;99.90;;;;;;6237423;22;20027;-90
2022/12/30 02:32:45;;;;;;;14.57;3.33;;;4.90;99.90;;;;;;6238122;22;20015;-91
2022/12/30 02:35:34;;;;;;;11.07;2.70;;;4.90;99.90;;;;;;6235126;22;20020;-91
2022/12/30 02:38:22;;;;;;;11.13;2.05;;;5.00;99.90;;;;;;6228265;22;20012;-91
2022/12/30 02:48:12;;;;;;;11.60;1.92;;;5.00;99.90;;;;;;6251451;22;20422;-91
2022/12/30 02:54:19;;;;;;;13.95;1.83;;;4.40;99.90;;;;;;6279023;22;20041;-92
2022/12/30 02:57:21;;;;;;;13.77;2.35;;;5.20;99.90;;;;;;6226932;22;20046;-92
2022/12/30 03:03:57;;;;;;;6.75;2.05;;;5.20;99.90;;;;;;6277323;22;20020;-92
2022/12/30 03:09:15;;;;;;;11.43;2.20;;;5.00;99.90;;;;;;6253471;22;20028;-92
2022/12/30 03:12:08;;;;;;;11.15;1.65;;;5.00;99.90;;;;;;6227185;22;20077;-90
2022/12/30 03:14:53;;;;;;;12.02;2.25;;;5.00;99.90;;;;;;6227055;22;20015;-92
2022/12/30 03:17:31;;;;;;;15.52;2.47;;;5.00;99.90;;;;;;6227222;22;20058;-92
2022/12/30 03:20:03;;;;;;;13.30;2.07;;;5.00;99.90;;;;;;6227967;22;20022;-91
2022/12/30 03:28:27;;;;;;;9.38;2.10;;;3.90;99.90;;;;;;6261725;22;20016;-88
2022/12/30 03:31:32;;;;;;;9.18;2.25;;;4.90;99.90;;;;;;6236396;22;20019;-90
2022/12/30 03:34:36;;;;;;;12.93;2.53;;;4.90;99.90;;;;;;6238420;22;20094;-90
2022/12/30 03:40:45;;;;;;;12.63;1.90;;;4.80;99.90;;;;;;6278727;22;20018;-90
2022/12/30 03:43:14;;;;;;;12.60;2.17;;;4.80;99.90;;;;;;6225893;22;20058;-92
2022/12/30 03:45:59;;;;;;;14.27;2.28;;;4.70;99.90;;;;;;6226583;22;20644;-92
2022/12/30 03:51:53;;;;;;;12.00;2.20;;;4.70;99.90;;;;;;6246463;22;20054;-91
2022/12/30 03:54:20;;;;;;;13.55;2.20;;;4.60;99.90;;;;;;6225175;22;20015;-91
2022/12/30 03:57:07;;;;;;;20.27;2.72;;;4.60;99.90;;;;;;6201235;22;20026;-92
2022/12/30 03:59:33;;;;;;;12.68;1.70;;;4.60;99.90;;;;;;6203945;22;20026;-91
2022/12/30 04:02:19;;;;;;;10.52;2.85;;;4.50;99.90;;;;;;6245667;22;20012;-91
2022/12/30 04:07:53;;;;;;;7.75;2.25;;;4.50;99.90;;;;;;6246357;23;20054;-91
2022/12/30 04:10:19;;;;;;;10.77;2.40;;;4.50;99.90;;;;;;6195838;23;20028;-93
2022/12/30 04:13:24;;;;;;;12.50;2.20;;;3.80;99.90;;;;;;6195794;23;20020;-92
2022/12/30 04:15:54;;;;;;;13.93;2.20;;;4.50;99.90;;;;;;6220778;23;20019;-92
2022/12/30 04:22:01;;;;;;;12.02;2.83;;;4.50;99.90;;;;;;6247850;23;20018;-93
2022/12/30 04:27:58;;;;;;;8.30;2.10;;;4.50;99.90;;;;;;6253278;22;20020;-92
2022/12/30 04:33:52;;;;;;;15.35;2.63;;;4.50;99.90;;;;;;6253090;22;20019;-91
2022/12/30 04:36:38;;;;;;;8.27;2.88;;;4.50;99.90;;;;;;6227766;22;20103;-92
2022/12/30 04:39:04;;;;;;;7.80;2.17;;;4.50;99.90;;;;;;6227919;22;20008;-92
2022/12/30 04:41:49;;;;;;;13.85;2.45;;;4.50;99.90;;;;;;6228031;22;20311;-92
2022/12/30 04:47:58;;;;;;;14.80;2.33;;;4.50;99.90;;;;;;6280157;22;20027;-92
2022/12/30 04:50:44;;;;;;;15.88;2.20;;;4.50;99.90;;;;;;6252372;22;20054;-92
2022/12/30 04:53:32;;;;;;;11.90;2.42;;;4.50;99.90;;;;;;6227661;22;20016;-91
2022/12/30 05:00:01;;;;;;;7.82;2.10;;;4.60;99.90;;;;;;6252334;22;20015;-92
2022/12/30 05:02:47;;;;;;;10.68;2.17;;;4.60;99.90;;;;;;6227548;22;20039;-91
2022/12/30 05:05:16;;;;;;;8.73;2.05;;;4.60;99.90;;;;;;6227507;22;20069;-91
2022/12/30 05:07:47;;;;;;;11.07;2.22;;;4.60;99.90;;;;;;6201789;22;20040;-91
2022/12/30 05:10:52;;;;;;;5.28;1.70;;;4.60;99.90;;;;;;6173500;23;20020;-92
2022/12/30 05:16:44;;;;;;;13.68;2.42;;;4.00;99.90;;;;;;6223217;23;20095;-90
2022/12/30 05:19:12;;;;;;;10.40;2.92;;;4.70;99.90;;;;;;6197092;23;20024;-91
2022/12/30 05:38:54;;;;;;;11.80;3.67;;;4.80;99.90;;;;;;6222981;23;20020;-90
2022/12/30 05:41:42;;;;;;;12.05;3.88;;;4.90;99.90;;;;;;6222313;23;20016;-90
2022/12/30 05:44:27;;;;;;;11.43;4.25;;;4.90;99.90;;;;;;6196033;23;20546;-92
2022/12/30 05:46:54;;;;;;;10.88;4.30;;;5.00;99.90;;;;;;6171428;23;20020;-92
2022/12/30 05:49:21;;;;;;;10.23;3.50;;;5.00;99.90;;;;;;6199646;23;20023;-92
2022/12/30 05:55:30;;;;;;;9.32;3.40;;;5.00;99.90;;;;;;6249355;23;20069;-91
2022/12/30 05:58:00;;;;;;;10.10;3.55;;;5.00;99.90;;;;;;6224034;23;20020;-91
2022/12/30 06:00:46;;;;;;;10.30;3.55;;;5.00;99.90;;;;;;6198576;23;20016;-91
2022/12/30 06:03:13;;;;;;;9.45;3.22;;;5.00;99.90;;;;;;6198267;23;20016;-91
2022/12/30 06:05:42;;;;;;;16.02;3.75;;;3.90;99.90;;;;;;6198828;23;20016;-90
2022/12/30 06:08:08;;;;;;;10.77;3.15;;;5.10;99.90;;;;;;6205086;22;20039;-91
2022/12/30 06:10:36;;;;;;;13.05;3.40;;;5.00;99.90;;;;;;6233411;22;20027;-90
2022/12/30 06:13:41;;;;;;;11.05;4.10;;;5.00;99.90;;;;;;6232609;22;20016;-91
2022/12/30 06:16:28;;;;;;;13.13;3.75;;;5.00;99.90;;;;;;6236628;22;20046;-90
2022/12/30 06:18:59;;;;;;;7.75;2.63;;;4.90;99.90;;;;;;6240794;22;20043;-90
2022/12/30 06:25:34;;;;;;;10.30;2.75;;;4.80;99.90;;;;;;6252213;22;20035;-91
2022/12/30 06:28:05;;;;;;;12.63;3.47;;;4.70;99.90;;;;;;6226751;22;20016;-91
2022/12/30 06:30:32;;;;;;;9.65;2.65;;;4.70;99.90;;;;;;6201221;22;20015;-91
2022/12/30 06:33:20;;;;;;;8.25;2.40;;;4.60;99.90;;;;;;6226717;22;20030;-92
2022/12/30 06:42:44;;;;;;;7.75;2.08;;;4.40;99.90;;;;;;6251800;22;20024;-90
2022/12/30 06:56:03;;;;;;;9.43;2.38;;;4.30;99.90;;;;;;6251491;22;20026;-92
2022/12/30 06:59:09;;;;;;;10.57;2.42;;;4.20;99.90;;;;;;6229896;22;20015;-93
2022/12/30 07:02:12;;;;;;;10.27;2.17;;;4.30;99.90;;;;;;6228825;22;20069;-92
2022/12/30 07:08:12;;;;;;;5.28;1.60;;;4.20;99.90;;;;;;6251342;22;20019;-92
2022/12/30 07:14:19;;;;;;;9.57;2.35;;;4.10;99.90;;;;;;6275137;22;20023;-92
2022/12/30 07:17:24;;;;;;;7.38;2.10;;;4.10;99.90;;;;;;6200157;22;20015;-92
2022/12/30 07:20:12;;;;;;;8.65;2.00;;;4.20;99.90;;;;;;6226311;22;20688;-91
2022/12/30 07:23:16;;;;;;;7.78;1.77;;;4.20;99.90;;;;;;6202246;22;20453;-92
2022/12/30 07:26:21;;;;;;;12.80;2.05;;;4.20;99.90;;;;;;6226084;22;20569;-92
2022/12/30 07:36:09;;;;;;;7.03;1.58;;;4.10;99.90;;;;;;6279348;22;20023;-91
2022/12/30 07:38:57;;;;;;;9.63;2.08;;;4.10;99.90;;;;;;6195540;22;20007;-93
2022/12/30 07:41:25;;;;;;;7.40;2.00;;;3.20;99.90;;;;;;6232827;22;20016;-91
2022/12/30 07:47:33;;;;;;;10.65;2.20;;;4.10;99.90;;;;;;6278129;22;20556;-93
2022/12/30 07:57:23;;;;;;;9.40;2.22;;;3.60;99.90;;;;;;6277005;22;20054;-92
2022/12/30 08:03:49;;;;;;;8.80;2.00;;;3.90;99.90;;;;;;6279944;22;20503;-93
2022/12/30 08:06:34;;;;;;;6.70;1.90;;;4.00;99.90;;;;;;6227209;22;20054;-92
2022/12/30 08:09:06;;;;;;;9.65;2.33;;;3.60;99.90;;;;;;6227048;22;20383;-92
2022/12/30 08:15:13;;;;;;;8.25;1.95;;;4.00;99.90;;;;;;6278296;22;20062;-92
2022/12/30 08:17:44;;;;;;;8.50;1.95;;;4.00;99.90;;;;;;6231813;22;20050;-92
2022/12/30 08:20:19;;;;;;;10.25;2.35;;;4.00;99.90;;;;;;6225048;22;20039;-92
2022/12/30 08:22:55;;;;;;;7.97;1.70;;;4.10;99.90;;;;;;6225181;22;20020;-92
2022/12/30 08:25:48;;;;;;;10.73;2.13;;;3.40;99.90;;;;;;6226074;22;20102;-92
2022/12/30 08:32:07;;;;;;;7.60;1.90;;;4.20;99.90;;;;;;6280059;22;20635;-91
2022/12/30 08:34:36;;;;;;;10.55;2.20;;;4.70;99.90;;;;;;6204082;22;20077;-92
2022/12/30 08:37:07;;;;;;;9.35;1.55;;;4.30;99.90;;;;;;6203696;22;20022;-92
2022/12/30 08:39:52;;;;;;;5.10;1.65;;;4.20;99.90;;;;;;6227873;22;20019;-92
2022/12/30 08:50:16;;;;;;;;;;;;;;;;;;;;;
2022/12/30 08:53:01;;;;;;;;;;;;;;;;;;;;;
2022/12/30 08:55:34;;;;;;;7.63;1.58;;;4.40;99.90;;;;;;6232910;22;20460;-89
2022/12/30 08:58:49;;;;;;;;;;;;;;;;;;;;;
2022/12/30 09:01:40;;;;;;;;;;;;;;;;;;;;;
2022/12/30 09:04:09;;;;;;;8.85;2.00;;;4.60;99.90;;;;;;6234531;22;20019;-91
2022/12/30 09:07:08;;;;;;;;;;;;;;;;;;;;;
2022/12/30 09:10:14;;;;;;;8.02;1.65;;;4.60;99.90;;;;;;6254681;22;20042;-92
2022/12/30 09:13:11;;;;;;;;;;;;;;;;;;;;;
2022/12/30 09:16:15;;;;;;;;;;;;;;;;;;;;;
2022/12/30 09:19:04;;;;;;;;;;;;;;;;;;;;;
2022/12/30 09:25:41;;;;;;;;;;;;;;;;;;;;;
2022/12/30 09:39:12;;;;;;;;;;;;;;;;;;;;;
2022/12/30 10:00:37;;;;;;;;;;;;;;;;;;;;;
2022/12/30 10:03:44;;;;;;;6.45;1.95;;;5.20;99.90;;;;;;6131391;23;20021;-94
2022/12/30 10:07:07;;;;;;;;;;;;;;;;;;;;;
2022/12/30 10:10:36;;;;;;;;;;;;;;;;;;;;;
2022/12/30 10:14:14;;;;;;;7.50;1.92;;;5.50;99.90;;;;;;6170566;23;20016;-90
2022/12/30 10:23:51;;;;;;;7.28;1.45;;;5.50;99.90;;;;;;6224374;23;20056;-95
2022/12/30 10:26:31;;;;;;;13.00;3.13;;;5.00;99.90;;;;;;6238028;23;20016;-94
2022/12/30 10:29:17;;;;;;;;;;;;;;;;;;;;;
2022/12/30 10:32:33;;;;;;;16.88;8.93;;;4.60;99.90;;;;;;6221276;23;20024;-93
2022/12/30 10:35:28;;;;;;;9.98;5.18;;;5.70;99.90;;;;;;6215565;23;20346;-92
2022/12/30 10:38:22;;;;;;;10.63;2.28;;;5.70;99.90;;;;;;6194855;23;20016;-92
2022/12/30 10:41:31;;;;;;;26.80;5.35;;;5.90;99.90;;;;;;6179462;23;20016;-91
2022/12/30 10:45:01;;;;;;;176.00;22.67;;;6.00;99.90;;;;;;6203690;23;20020;-94
2022/12/30 10:47:37;;;;;;;4.00;1.13;;;6.00;99.90;;;;;;6197642;23;20020;-94
2022/12/30 10:50:58;;;;;;;4.65;1.30;;;6.00;99.90;;;;;;6196492;23;20016;-93
2022/12/30 10:53:33;;;;;;;4.65;1.48;;;5.30;99.90;;;;;;6163448;23;20020;-94
2022/12/30 10:56:02;;;;;;;5.82;2.58;;;6.10;99.90;;;;;;6188001;23;20027;-91
2022/12/30 10:58:48;;;;;;;8.15;3.95;;;6.20;99.90;;;;;;6190162;23;20016;-93
2022/12/30 11:01:21;;;;;;;10.02;3.65;;;6.30;99.90;;;;;;6174314;23;20020;-90
2022/12/30 11:04:26;;;;;;;7.20;2.20;;;6.20;99.90;;;;;;6199416;23;20104;-93
2022/12/30 11:07:20;;;;;;;4.78;2.05;;;6.30;99.90;;;;;;6198621;23;20027;-94
2022/12/30 11:09:49;;;;;;;2.83;1.05;;;5.50;99.90;;;;;;6180108;22;20020;-93
2022/12/30 11:15:29;;;;;;;12.27;1.77;;;6.50;99.90;;;;;;6249874;22;20023;-93
2022/12/30 11:18:17;;;;;;;233.23;27.67;;;6.50;99.90;;;;;;6204566;22;20042;-91
2022/12/30 11:24:24;;;;;;;31.17;4.50;;;6.70;99.90;;;;;;6239541;22;20024;-93
2022/12/30 11:31:25;;;;;;;5.03;1.45;;;6.60;99.90;;;;;;6264543;22;20020;-91
2022/12/30 11:49:05;;;;;;;;;;;;;;;;;;;;;
2022/12/30 11:56:19;;;;;;;;;;;;;;;;;;;;;
2022/12/30 11:59:47;;;;;;;;;;;;;;;;;;;;;
2022/12/30 12:02:48;;;;;;;;;;;;;;;;;;;;;
2022/12/30 12:06:17;;;;;;;;;;;;;;;;;;;;;
2022/12/30 12:20:58;;;;;;;;;;;;;;;;;;;;;
2022/12/30 12:24:16;;;;;;;;;;;;;;;;;;;;;
2022/12/30 12:45:35;;;;;;;;;;;;;;;;;;;;;
2022/12/30 12:49:13;;;;;;;;;;;;;;;;;;;;;
2022/12/30 12:52:24;;;;;;;4.90;1.20;;;7.40;99.90;;;;;;6101137;23;20485;-92
2022/12/30 12:55:30;;;;;;;;;;;;;;;;;;;;;
2022/12/30 12:58:12;;;;;;;;;;;;;;;;;;;;;
2022/12/30 13:23:29;;;;;;;;;;;;;;;;;;;;;
2022/12/30 13:29:22;;;;;;;4.22;0.88;;;8.20;99.90;;;;;;6049122;23;20065;-90
2022/12/30 13:32:34;;;;;;;;;;;;;;;;;;;;;
2022/12/30 13:35:54;;;;;;;;;;;;;;;;;;;;;
2022/12/30 13:39:06;;;;;;;;;;;;;;;;;;;;;
2022/12/30 13:56:35;;;;;;;;;;;;;;;;;;;;;
2022/12/30 14:00:00;;;;;;;;;;;;;;;;;;;;;
2022/12/30 14:10:00;;;;;;;;;;;;;;;;;;;;;
2022/12/30 14:13:31;;;;;;;3.15;1.00;;;8.00;99.90;;;;;;5927836;24;20032;-93
2022/12/30 14:16:16;;;;;;;3.08;0.60;;;7.30;99.90;;;;;;5925796;24;20395;-92
2022/12/30 14:19:14;;;;;;;2.80;0.55;;;8.10;99.90;;;;;;5980705;23;20018;-92
2022/12/30 14:21:49;;;;;;;2.47;0.80;;;8.00;99.90;;;;;;6129364;23;20025;-92
2022/12/30 14:24:30;;;;;;;4.40;0.75;;;8.30;99.90;;;;;;6131912;23;20035;-91
2022/12/30 14:27:31;;;;;;;2.47;0.80;;;8.00;99.90;;;;;;6180551;23;20066;-93
2022/12/30 14:30:20;;;;;;;3.25;0.80;;;8.00;99.90;;;;;;6188893;23;20035;-92
2022/12/30 14:36:41;;;;;;;2.97;0.43;;;8.10;99.90;;;;;;6213882;23;20078;-94
2022/12/30 14:42:38;;;;;;;2.00;0.65;;;8.10;99.90;;;;;;6246581;23;20031;-92
2022/12/30 14:52:43;;;;;;;1.90;0.50;;;7.30;99.90;;;;;;6219063;23;20568;-93
2022/12/30 14:55:54;;;;;;;;;;;;;;;;;;;;;
2022/12/30 14:58:32;;;;;;;;;;;;;;;;;;;;;
2022/12/30 15:01:23;;;;;;;;;;;;;;;;;;;;;
2022/12/30 15:04:26;;;;;;;;;;;;;;;;;;;;;
2022/12/30 15:07:34;;;;;;;;;;;;;;;;;;;;;
2022/12/30 15:14:20;;;;;;;1.85;0.77;;;7.90;99.90;;;;;;6244758;23;20015;-91
2022/12/30 15:24:29;;;;;;;3.72;0.80;;;7.90;99.90;;;;;;6218115;23;20031;-89
2022/12/30 15:34:02;;;;;;;2.00;0.60;;;7.90;99.90;;;;;;6244729;23;20568;-90
2022/12/30 15:37:06;;;;;;;3.17;0.98;;;7.80;99.90;;;;;;6193055;23;20510;-92
2022/12/30 15:39:52;;;;;;;2.45;0.90;;;8.00;99.90;;;;;;6193180;23;20466;-90
2022/12/30 15:42:43;;;;;;;3.00;0.88;;;7.90;99.90;;;;;;6193086;23;20024;-90
2022/12/30 15:45:51;;;;;;;2.03;0.95;;;7.90;99.90;;;;;;6147286;23;20016;-91
2022/12/30 16:15:37;;;;;;;2.33;1.27;;;7.80;99.90;;;;;;6186001;23;20571;-91
2022/12/30 16:18:32;;;;;;;4.13;1.67;;;7.70;99.90;;;;;;6181913;23;20079;-92
2022/12/30 16:21:06;;;;;;;3.05;1.42;;;7.80;99.90;;;;;;6183078;23;20059;-90
2022/12/30 16:23:38;;;;;;;3.08;1.83;;;7.50;99.90;;;;;;6164772;23;20601;-90
2022/12/30 16:26:46;;;;;;;3.05;1.73;;;7.70;99.90;;;;;;6164357;23;20597;-91
2022/12/30 16:29:41;;;;;;;3.08;2.13;;;7.80;99.90;;;;;;6119900;23;20074;-91
2022/12/30 16:32:44;;;;;;;;;;;;;;;;;;;;;
2022/12/30 16:35:39;;;;;;;;;;;;;;;;;;;;;
2022/12/30 16:38:27;;;;;;;;;;;;;;;;;;;;;
2022/12/30 16:41:01;;;;;;;3.22;2.33;;;8.10;99.90;;;;;;6189080;23;20021;-91
2022/12/30 16:44:19;;;;;;;;;;;;;;;;;;;;;
2022/12/30 16:47:17;;;;;;;;;;;;;;;;;;;;;
2022/12/30 16:49:43;;;;;;;4.68;2.50;;;7.80;99.90;;;;;;6188429;23;20051;-92
2022/12/30 16:52:31;;;;;;;;;;;;;;;;;;;;;
2022/12/30 16:55:00;;;;;;;6.90;2.78;;;7.90;99.90;;;;;;6187949;23;20048;-92
2022/12/30 16:58:04;;;;;;;3.53;2.90;;;7.40;99.90;;;;;;6164647;23;20017;-91
2022/12/30 17:00:31;;;;;;;4.35;2.58;;;7.90;99.90;;;;;;6165215;23;20072;-92
2022/12/30 17:06:53;;;;;;;3.60;2.38;;;8.00;99.90;;;;;;6287660;22;20444;-92
2022/12/30 17:12:46;;;;;;;4.88;3.10;;;8.00;99.90;;;;;;6258581;22;20020;-91
2022/12/30 17:15:31;;;;;;;3.20;2.67;;;8.10;99.90;;;;;;6254787;22;20053;-92
2022/12/30 17:24:30;;;;;;;3.30;2.60;;;8.20;99.90;;;;;;6280199;22;20027;-91
2022/12/30 17:26:56;;;;;;;3.28;2.55;;;8.20;99.90;;;;;;6247704;22;20012;-92
2022/12/30 17:29:53;;;;;;;3.08;2.20;;;8.30;99.90;;;;;;6280345;22;20019;-93
2022/12/30 17:32:41;;;;;;;5.03;2.65;;;8.40;99.90;;;;;;6255245;22;20022;-92
2022/12/30 17:35:20;;;;;;;3.03;2.15;;;8.00;99.90;;;;;;6251379;22;20012;-93
2022/12/30 17:38:05;;;;;;;3.72;3.08;;;8.40;99.90;;;;;;6254018;22;20098;-91
2022/12/30 17:44:30;;;;;;;;;;;;;;;;;;;;;
2022/12/30 21:14:43;;;;;;;8.77;2.00;;;10.60;99.90;;;;;;6332382;22;20972;-92
2022/12/30 21:17:24;;;;;;;;;;;;;;;;;;;;;
2022/12/30 21:20:20;;;;;;;;;;;;;;;;;;;;;
2022/12/30 21:23:19;;;;;;;;;;;;;;;;;;;;;
2022/12/30 22:04:23;;;;;;;8.95;1.92;;;10.70;99.90;;;;;;6129648;23;20181;-92
2022/12/30 22:06:49;;;;;;;6.70;1.65;;;10.20;99.90;;;;;;6104601;23;20491;-92
2022/12/30 22:12:43;;;;;;;6.32;1.90;;;10.60;99.90;;;;;;6129740;23;20031;-91
2022/12/30 22:15:12;;;;;;;10.60;1.90;;;10.50;99.90;;;;;;6129850;23;20024;-92
2022/12/30 22:17:40;;;;;;;8.60;1.67;;;10.60;99.90;;;;;;6129481;23;20395;-92
2022/12/30 22:23:30;;;;;;;10.23;1.85;;;10.60;99.90;;;;;;6129750;23;20022;-92
2022/12/30 22:26:23;;;;;;;6.38;1.73;;;10.60;99.90;;;;;;6129380;23;20032;-92
2022/12/30 22:35:56;;;;;;;10.00;1.77;;;10.10;99.90;;;;;;6129551;23;20441;-91
2022/12/30 22:38:22;;;;;;;6.10;1.25;;;10.00;99.90;;;;;;6122104;23;20047;-92
2022/12/30 22:41:13;;;;;;;6.47;1.65;;;10.50;99.90;;;;;;6158968;23;20025;-91
2022/12/30 22:43:41;;;;;;;6.95;1.45;;;10.50;99.90;;;;;;6158548;23;20025;-91
2022/12/30 22:46:26;;;;;;;10.38;1.63;;;10.50;99.90;;;;;;6134398;23;20432;-91
2022/12/30 22:48:52;;;;;;;8.05;1.70;;;10.50;99.90;;;;;;6134619;23;20020;-91
2022/12/30 22:54:43;;;;;;;8.18;1.95;;;10.50;99.90;;;;;;6183341;23;20028;-92
2022/12/30 22:57:30;;;;;;;9.57;1.65;;;10.50;99.90;;;;;;6158617;23;20040;-93
2022/12/30 22:59:56;;;;;;;6.07;1.58;;;10.40;99.90;;;;;;6183933;23;20019;-92
2022/12/30 23:02:24;;;;;;;4.22;1.50;;;10.50;99.90;;;;;;6133955;23;20495;-91
2022/12/30 23:05:11;;;;;;;4.38;1.10;;;10.30;99.90;;;;;;6133783;23;20023;-93
2022/12/30 23:08:17;;;;;;;6.80;1.20;;;10.60;99.90;;;;;;6182940;23;20024;-91
2022/12/30 23:17:49;;;;;;;6.45;2.28;;;10.70;99.90;;;;;;6162063;23;20025;-91
2022/12/30 23:20:17;;;;;;;6.63;1.42;;;10.30;99.90;;;;;;6182865;23;20479;-92
2022/12/30 23:25:47;;;;;;;7.25;1.38;;;10.70;99.90;;;;;;6164362;23;20143;-92
2022/12/30 23:28:18;;;;;;;5.45;1.30;;;10.80;99.90;;;;;;6133642;23;20056;-92
2022/12/30 23:37:40;;;;;;;6.32;2.00;;;10.80;99.90;;;;;;6304376;22;20042;-92
2022/12/30 23:51:22;;;;;;;6.80;1.38;;;10.80;99.90;;;;;;6302409;22;20084;-92
2022/12/30 23:56:54;;;;;;;6.88;1.45;;;10.90;99.90;;;;;;6280590;22;19975;-92
